Emmetsburg Municipal Airport


Codes: KEGQ/
Name: Emmetsburg Municipal Airport
City: Emmetsburg
Country: United States
Elevation: 1205 ft.

Photos at Emmetsburg Municipal Airport


   Photos courtesy of SpottingLog. You can add your own sightings and photos by signing up for a free trial today.



No photos found.

Weather at Emmetsburg Municipal Airport


Time (UTC)DescriptionTempratureWindCloud coverageVisibilityPressureHumidity
15-Apr-2024 18:00Clear Sky22°C16 mph, SE1%10000m1013hPa30%
15-Apr-2024 21:00Clear Sky22°C18 mph, SE1%10000m1012hPa28%
16-Apr-2024 00:00Clear Sky22°C18 mph, SE0%10000m1010hPa34%
16-Apr-2024 03:00Light Rain18°C20 mph, E39%10000m1009hPa49%
16-Apr-2024 06:00Light Rain16°C22 mph, SE69%10000m1007hPa57%
16-Apr-2024 09:00Moderate Rain13°C20 mph, SE100%7104m1005hPa85%
16-Apr-2024 12:00Heavy Intensity Rain11°C25 mph, SE100%7786m1003hPa90%
16-Apr-2024 15:00Moderate Rain12°C22 mph, SE100%10000m1000hPa90%
16-Apr-2024 18:00Heavy Intensity Rain13°C22 mph, SE100%4591m996hPa93%
16-Apr-2024 21:00Light Rain15°C13 mph, SE100%10000m995hPa74%
17-Apr-2024 00:00Light Rain15°C13 mph, SE83%10000m993hPa82%
17-Apr-2024 03:00Overcast Clouds12°C4 mph, NE100%10000m995hPa90%
17-Apr-2024 06:00Light Rain12°C4 mph, NW100%10000m994hPa91%
17-Apr-2024 09:00Light Rain11°C16 mph, NW99%10000m996hPa94%
17-Apr-2024 12:00Overcast Clouds9°C18 mph, NW100%10000m1000hPa89%
17-Apr-2024 15:00Overcast Clouds8°C20 mph, NW100%10000m1004hPa82%
17-Apr-2024 18:00Overcast Clouds8°C20 mph, NW100%10000m1007hPa79%
17-Apr-2024 21:00Overcast Clouds10°C20 mph, NW100%10000m1009hPa67%
18-Apr-2024 00:00Overcast Clouds9°C18 mph, NW100%10000m1012hPa67%
18-Apr-2024 03:00Scattered Clouds7°C4 mph, NW47%10000m1015hPa82%
18-Apr-2024 06:00Broken Clouds7°C4 mph, NW52%10000m1017hPa84%
18-Apr-2024 09:00Overcast Clouds7°C4 mph, W100%10000m1017hPa82%
18-Apr-2024 12:00Overcast Clouds7°C4 mph, W100%10000m1018hPa81%
18-Apr-2024 15:00Overcast Clouds9°C9 mph, NW100%10000m1020hPa59%
18-Apr-2024 18:00Overcast Clouds11°C16 mph, NW100%10000m1019hPa42%
18-Apr-2024 21:00Overcast Clouds12°C16 mph, NW99%10000m1018hPa38%
19-Apr-2024 00:00Overcast Clouds11°C16 mph, NW99%10000m1019hPa42%
19-Apr-2024 03:00Few Clouds7°C9 mph, NW18%10000m1021hPa52%
19-Apr-2024 06:00Clear Sky5°C9 mph, NW10%10000m1022hPa55%
19-Apr-2024 09:00Scattered Clouds4°C9 mph, NW37%10000m1023hPa55%
19-Apr-2024 12:00Scattered Clouds2°C11 mph, NW50%10000m1025hPa57%
19-Apr-2024 15:00Clear Sky6°C20 mph, NW0%10000m1025hPa41%
19-Apr-2024 18:00Clear Sky8°C22 mph, NW5%10000m1023hPa35%
19-Apr-2024 21:00Clear Sky9°C22 mph, NW4%10000m1022hPa28%
20-Apr-2024 00:00Clear Sky8°C16 mph, NW1%10000m1023hPa38%
20-Apr-2024 03:00Clear Sky4°C13 mph, N8%10000m1026hPa50%
20-Apr-2024 06:00Clear Sky3°C11 mph, NW10%10000m1027hPa57%
20-Apr-2024 09:00Overcast Clouds1°C11 mph, NW91%10000m1028hPa65%
20-Apr-2024 12:00Overcast Clouds0°C7 mph, NW90%10000m1029hPa73%
20-Apr-2024 15:00Scattered Clouds4°C11 mph, NW49%10000m1029hPa55%